sensor_id;sensor_type;location;lat;lon;timestamp;temperature;humidity
11067;DHT22;29763;50.904;5.530;2022-08-18T00:01:08;16.70;99.90
11067;DHT22;29763;50.904;5.530;2022-08-18T00:03:35;16.70;99.90
11067;DHT22;29763;50.904;5.530;2022-08-18T00:06:00;16.70;99.90
11067;DHT22;29763;50.904;5.530;2022-08-18T00:08:26;16.70;99.90
11067;DHT22;29763;50.904;5.530;2022-08-18T00:10:54;16.80;99.90
11067;DHT22;29763;50.904;5.530;2022-08-18T00:13:20;16.80;99.90
11067;DHT22;29763;50.904;5.530;2022-08-18T00:15:46;16.80;99.90
11067;DHT22;29763;50.904;5.530;2022-08-18T00:18:11;16.80;99.90
11067;DHT22;29763;50.904;5.530;2022-08-18T00:20:39;16.80;99.90
11067;DHT22;29763;50.904;5.530;2022-08-18T00:23:05;16.80;99.90
11067;DHT22;29763;50.904;5.530;2022-08-18T00:25:31;16.80;99.90
11067;DHT22;29763;50.904;5.530;2022-08-18T00:27:57;16.80;99.90
11067;DHT22;29763;50.904;5.530;2022-08-18T00:30:23;16.70;99.90
11067;DHT22;29763;50.904;5.530;2022-08-18T00:32:54;16.70;99.90
11067;DHT22;29763;50.904;5.530;2022-08-18T00:35:24;16.60;99.90
11067;DHT22;29763;50.904;5.530;2022-08-18T00:37:58;16.50;99.90
11067;DHT22;29763;50.904;5.530;2022-08-18T00:40:38;16.40;99.90
11067;DHT22;29763;50.904;5.530;2022-08-18T00:43:06;16.40;99.90
11067;DHT22;29763;50.904;5.530;2022-08-18T00:45:35;16.50;99.90
11067;DHT22;29763;50.904;5.530;2022-08-18T00:48:07;16.50;99.90
11067;DHT22;29763;50.904;5.530;2022-08-18T00:50:49;16.50;99.90
11067;DHT22;29763;50.904;5.530;2022-08-18T00:53:30;16.50;99.90
11067;DHT22;29763;50.904;5.530;2022-08-18T00:56:05;16.50;99.90
11067;DHT22;29763;50.904;5.530;2022-08-18T00:58:40;16.60;99.90
11067;DHT22;29763;50.904;5.530;2022-08-18T01:01:08;16.60;99.90
11067;DHT22;29763;50.904;5.530;2022-08-18T01:03:37;16.70;99.90
11067;DHT22;29763;50.904;5.530;2022-08-18T01:08:46;16.90;99.90
11067;DHT22;29763;50.904;5.530;2022-08-18T01:11:12;16.80;99.90
11067;DHT22;29763;50.904;5.530;2022-08-18T01:13:40;16.90;99.90
11067;DHT22;29763;50.904;5.530;2022-08-18T01:16:06;16.80;99.90
11067;DHT22;29763;50.904;5.530;2022-08-18T01:19:01;16.80;99.90
11067;DHT22;29763;50.904;5.530;2022-08-18T01:21:49;16.90;99.90
11067;DHT22;29763;50.904;5.530;2022-08-18T01:24:17;16.90;99.90
11067;DHT22;29763;50.904;5.530;2022-08-18T01:26:43;17.10;99.90
11067;DHT22;29763;50.904;5.530;2022-08-18T01:29:16;17.10;99.90
11067;DHT22;29763;50.904;5.530;2022-08-18T01:31:51;17.20;99.90
11067;DHT22;29763;50.904;5.530;2022-08-18T01:34:23;17.20;99.90
11067;DHT22;29763;50.904;5.530;2022-08-18T01:36:50;17.30;99.90
11067;DHT22;29763;50.904;5.530;2022-08-18T01:39:20;17.30;99.90
11067;DHT22;29763;50.904;5.530;2022-08-18T01:41:46;17.30;99.90
11067;DHT22;29763;50.904;5.530;2022-08-18T01:44:12;17.30;99.90
11067;DHT22;29763;50.904;5.530;2022-08-18T01:46:39;17.30;99.90
11067;DHT22;29763;50.904;5.530;2022-08-18T01:49:06;17.40;99.90
11067;DHT22;29763;50.904;5.530;2022-08-18T01:51:33;17.40;99.90
11067;DHT22;29763;50.904;5.530;2022-08-18T01:54:03;17.40;99.90
11067;DHT22;29763;50.904;5.530;2022-08-18T01:56:29;17.40;99.90
11067;DHT22;29763;50.904;5.530;2022-08-18T01:58:55;17.50;99.90
11067;DHT22;29763;50.904;5.530;2022-08-18T02:01:23;17.50;99.90
11067;DHT22;29763;50.904;5.530;2022-08-18T02:03:53;17.50;99.90
11067;DHT22;29763;50.904;5.530;2022-08-18T02:06:19;17.50;99.90
11067;DHT22;29763;50.904;5.530;2022-08-18T02:08:46;17.50;99.90
11067;DHT22;29763;50.904;5.530;2022-08-18T02:11:13;17.60;99.90
11067;DHT22;29763;50.904;5.530;2022-08-18T02:13:44;17.60;99.90
11067;DHT22;29763;50.904;5.530;2022-08-18T02:16:10;17.60;99.90
11067;DHT22;29763;50.904;5.530;2022-08-18T02:18:36;17.60;99.90
11067;DHT22;29763;50.904;5.530;2022-08-18T02:21:11;17.60;99.90
11067;DHT22;29763;50.904;5.530;2022-08-18T02:23:38;17.60;99.90
11067;DHT22;29763;50.904;5.530;2022-08-18T02:26:06;17.60;99.90
11067;DHT22;29763;50.904;5.530;2022-08-18T02:28:32;17.60;99.90
11067;DHT22;29763;50.904;5.530;2022-08-18T02:31:06;17.70;99.90
11067;DHT22;29763;50.904;5.530;2022-08-18T02:33:33;17.70;99.90
11067;DHT22;29763;50.904;5.530;2022-08-18T02:35:59;17.70;99.90
11067;DHT22;29763;50.904;5.530;2022-08-18T02:38:25;17.70;99.90
11067;DHT22;29763;50.904;5.530;2022-08-18T02:40:58;17.70;99.90
11067;DHT22;29763;50.904;5.530;2022-08-18T02:43:25;17.80;99.90
11067;DHT22;29763;50.904;5.530;2022-08-18T02:45:51;17.80;99.90
11067;DHT22;29763;50.904;5.530;2022-08-18T02:48:18;17.80;99.90
11067;DHT22;29763;50.904;5.530;2022-08-18T02:50:49;17.80;99.90
11067;DHT22;29763;50.904;5.530;2022-08-18T02:53:15;17.90;99.90
11067;DHT22;29763;50.904;5.530;2022-08-18T02:55:47;17.90;99.90
11067;DHT22;29763;50.904;5.530;2022-08-18T02:58:13;17.90;99.90
11067;DHT22;29763;50.904;5.530;2022-08-18T03:00:39;18.00;99.90
11067;DHT22;29763;50.904;5.530;2022-08-18T03:03:04;18.00;99.90
11067;DHT22;29763;50.904;5.530;2022-08-18T03:05:31;18.00;99.90
11067;DHT22;29763;50.904;5.530;2022-08-18T03:07:56;18.00;99.90
11067;DHT22;29763;50.904;5.530;2022-08-18T03:10:24;18.10;99.90
11067;DHT22;29763;50.904;5.530;2022-08-18T03:12:49;18.10;99.90
11067;DHT22;29763;50.904;5.530;2022-08-18T03:15:15;18.10;99.90
11067;DHT22;29763;50.904;5.530;2022-08-18T03:17:41;18.10;99.90
11067;DHT22;29763;50.904;5.530;2022-08-18T03:20:07;18.10;99.90
11067;DHT22;29763;50.904;5.530;2022-08-18T03:22:33;18.10;99.90
11067;DHT22;29763;50.904;5.530;2022-08-18T03:24:59;18.10;99.90
11067;DHT22;29763;50.904;5.530;2022-08-18T03:27:25;18.10;99.90
11067;DHT22;29763;50.904;5.530;2022-08-18T03:29:51;18.10;99.90
11067;DHT22;29763;50.904;5.530;2022-08-18T03:32:17;18.00;99.90
11067;DHT22;29763;50.904;5.530;2022-08-18T03:34:43;18.00;99.90
11067;DHT22;29763;50.904;5.530;2022-08-18T03:37:09;18.00;99.90
11067;DHT22;29763;50.904;5.530;2022-08-18T03:39:35;18.10;99.90
11067;DHT22;29763;50.904;5.530;2022-08-18T03:42:03;18.10;99.90
11067;DHT22;29763;50.904;5.530;2022-08-18T03:44:32;18.00;99.90
11067;DHT22;29763;50.904;5.530;2022-08-18T03:47:00;18.00;99.90
11067;DHT22;29763;50.904;5.530;2022-08-18T03:49:30;18.00;99.90
11067;DHT22;29763;50.904;5.530;2022-08-18T03:51:55;17.90;99.90
11067;DHT22;29763;50.904;5.530;2022-08-18T03:54:24;17.90;99.90
11067;DHT22;29763;50.904;5.530;2022-08-18T03:56:50;17.90;99.90
11067;DHT22;29763;50.904;5.530;2022-08-18T03:59:20;17.90;99.90
11067;DHT22;29763;50.904;5.530;2022-08-18T04:01:48;17.90;99.90
11067;DHT22;29763;50.904;5.530;2022-08-18T04:04:20;17.90;99.90
11067;DHT22;29763;50.904;5.530;2022-08-18T04:06:52;17.90;99.90
11067;DHT22;29763;50.904;5.530;2022-08-18T04:09:22;17.90;99.90
11067;DHT22;29763;50.904;5.530;2022-08-18T04:11:49;17.90;99.90
11067;DHT22;29763;50.904;5.530;2022-08-18T04:14:18;17.90;99.90
11067;DHT22;29763;50.904;5.530;2022-08-18T04:16:45;17.90;99.90
11067;DHT22;29763;50.904;5.530;2022-08-18T04:19:14;17.90;99.90
11067;DHT22;29763;50.904;5.530;2022-08-18T04:21:44;17.90;99.90
11067;DHT22;29763;50.904;5.530;2022-08-18T04:24:12;17.90;99.90
11067;DHT22;29763;50.904;5.530;2022-08-18T04:26:41;17.90;99.90
11067;DHT22;29763;50.904;5.530;2022-08-18T04:29:10;17.90;99.90
11067;DHT22;29763;50.904;5.530;2022-08-18T04:31:40;17.90;99.90
11067;DHT22;29763;50.904;5.530;2022-08-18T04:34:06;17.90;99.90
11067;DHT22;29763;50.904;5.530;2022-08-18T04:36:33;17.80;99.90
11067;DHT22;29763;50.904;5.530;2022-08-18T04:39:00;17.80;99.90
11067;DHT22;29763;50.904;5.530;2022-08-18T04:41:26;17.80;99.90
11067;DHT22;29763;50.904;5.530;2022-08-18T04:43:54;17.80;99.90
11067;DHT22;29763;50.904;5.530;2022-08-18T04:46:20;17.80;99.90
11067;DHT22;29763;50.904;5.530;2022-08-18T04:48:45;17.80;99.90
11067;DHT22;29763;50.904;5.530;2022-08-18T04:51:15;17.80;99.90
11067;DHT22;29763;50.904;5.530;2022-08-18T04:53:42;17.90;99.90
11067;DHT22;29763;50.904;5.530;2022-08-18T04:56:21;17.90;99.90
11067;DHT22;29763;50.904;5.530;2022-08-18T04:58:59;18.00;99.90
11067;DHT22;29763;50.904;5.530;2022-08-18T05:01:28;18.00;99.90
11067;DHT22;29763;50.904;5.530;2022-08-18T05:03:56;18.00;99.90
11067;DHT22;29763;50.904;5.530;2022-08-18T05:06:24;18.00;99.90
11067;DHT22;29763;50.904;5.530;2022-08-18T05:08:51;18.00;99.90
11067;DHT22;29763;50.904;5.530;2022-08-18T05:11:19;18.00;99.90
11067;DHT22;29763;50.904;5.530;2022-08-18T05:13:46;18.00;99.90
11067;DHT22;29763;50.904;5.530;2022-08-18T05:16:13;18.00;99.90
11067;DHT22;29763;50.904;5.530;2022-08-18T05:18:40;18.00;99.90
11067;DHT22;29763;50.904;5.530;2022-08-18T05:21:10;18.00;99.90
11067;DHT22;29763;50.904;5.530;2022-08-18T05:23:43;18.00;99.90
11067;DHT22;29763;50.904;5.530;2022-08-18T05:26:09;18.00;99.90
11067;DHT22;29763;50.904;5.530;2022-08-18T05:28:36;18.10;99.90
11067;DHT22;29763;50.904;5.530;2022-08-18T05:31:22;18.10;99.90
11067;DHT22;29763;50.904;5.530;2022-08-18T05:33:49;18.20;99.90
11067;DHT22;29763;50.904;5.530;2022-08-18T05:41:47;18.40;99.90
11067;DHT22;29763;50.904;5.530;2022-08-18T05:44:17;18.40;99.90
11067;DHT22;29763;50.904;5.530;2022-08-18T05:46:56;18.50;99.90
11067;DHT22;29763;50.904;5.530;2022-08-18T05:49:25;18.50;99.90
11067;DHT22;29763;50.904;5.530;2022-08-18T05:51:54;18.60;99.90
11067;DHT22;29763;50.904;5.530;2022-08-18T05:54:22;18.60;99.90
11067;DHT22;29763;50.904;5.530;2022-08-18T05:57:13;18.70;99.90
11067;DHT22;29763;50.904;5.530;2022-08-18T05:59:40;18.70;99.90
11067;DHT22;29763;50.904;5.530;2022-08-18T06:04:51;18.80;99.90
11067;DHT22;29763;50.904;5.530;2022-08-18T06:09:56;18.80;99.90
11067;DHT22;29763;50.904;5.530;2022-08-18T06:12:42;18.80;99.90
11067;DHT22;29763;50.904;5.530;2022-08-18T06:18:02;18.90;99.90
11067;DHT22;29763;50.904;5.530;2022-08-18T06:29:09;19.00;99.90
11067;DHT22;29763;50.904;5.530;2022-08-18T06:34:33;19.00;99.90
11067;DHT22;29763;50.904;5.530;2022-08-18T06:37:15;19.10;99.90
11067;DHT22;29763;50.904;5.530;2022-08-18T06:39:49;19.10;99.90
11067;DHT22;29763;50.904;5.530;2022-08-18T06:42:20;19.20;99.90
11067;DHT22;29763;50.904;5.530;2022-08-18T06:44:59;19.20;99.90
11067;DHT22;29763;50.904;5.530;2022-08-18T06:47:42;19.30;99.90
11067;DHT22;29763;50.904;5.530;2022-08-18T06:50:27;19.30;99.90
11067;DHT22;29763;50.904;5.530;2022-08-18T06:53:02;19.30;99.90
11067;DHT22;29763;50.904;5.530;2022-08-18T06:55:36;19.30;99.90
11067;DHT22;29763;50.904;5.530;2022-08-18T06:58:07;19.30;99.90
11067;DHT22;29763;50.904;5.530;2022-08-18T07:00:55;19.30;99.90
11067;DHT22;29763;50.904;5.530;2022-08-18T07:06:23;19.40;99.90
11067;DHT22;29763;50.904;5.530;2022-08-18T07:08:54;19.40;99.90
11067;DHT22;29763;50.904;5.530;2022-08-18T07:11:30;19.50;99.90
11067;DHT22;29763;50.904;5.530;2022-08-18T07:14:19;19.50;99.90
11067;DHT22;29763;50.904;5.530;2022-08-18T07:16:48;19.70;99.90
11067;DHT22;29763;50.904;5.530;2022-08-18T07:19:19;19.70;99.90
11067;DHT22;29763;50.904;5.530;2022-08-18T07:22:01;19.90;99.90
11067;DHT22;29763;50.904;5.530;2022-08-18T07:24:54;20.00;99.90
11067;DHT22;29763;50.904;5.530;2022-08-18T07:32:56;20.00;99.90
11067;DHT22;29763;50.904;5.530;2022-08-18T07:35:36;20.00;99.90
11067;DHT22;29763;50.904;5.530;2022-08-18T07:38:19;20.00;99.90
11067;DHT22;29763;50.904;5.530;2022-08-18T07:41:03;20.00;99.90
11067;DHT22;29763;50.904;5.530;2022-08-18T07:43:58;20.00;99.90
11067;DHT22;29763;50.904;5.530;2022-08-18T07:46:46;20.10;99.90
11067;DHT22;29763;50.904;5.530;2022-08-18T07:49:27;20.10;99.90
11067;DHT22;29763;50.904;5.530;2022-08-18T07:52:31;20.20;99.90
11067;DHT22;29763;50.904;5.530;2022-08-18T07:57:49;20.10;99.90
11067;DHT22;29763;50.904;5.530;2022-08-18T08:00:27;20.10;99.90
11067;DHT22;29763;50.904;5.530;2022-08-18T08:02:59;20.10;99.90
11067;DHT22;29763;50.904;5.530;2022-08-18T08:05:35;20.10;99.90
11067;DHT22;29763;50.904;5.530;2022-08-18T08:21:43;20.00;99.90
11067;DHT22;29763;50.904;5.530;2022-08-18T08:24:25;20.00;99.90
11067;DHT22;29763;50.904;5.530;2022-08-18T08:27:10;20.00;99.90
11067;DHT22;29763;50.904;5.530;2022-08-18T08:30:25;20.10;99.90
11067;DHT22;29763;50.904;5.530;2022-08-18T08:32:36;20.20;99.90
11067;DHT22;29763;50.904;5.530;2022-08-18T08:35:20;20.40;99.90
11067;DHT22;29763;50.904;5.530;2022-08-18T08:38:01;20.70;99.90
11067;DHT22;29763;50.904;5.530;2022-08-18T08:41:08;20.90;99.90
11067;DHT22;29763;50.904;5.530;2022-08-18T08:43:44;21.20;99.90
11067;DHT22;29763;50.904;5.530;2022-08-18T08:46:26;21.40;99.90
11067;DHT22;29763;50.904;5.530;2022-08-18T08:49:10;21.70;99.90
11067;DHT22;29763;50.904;5.530;2022-08-18T08:51:48;22.00;99.90
11067;DHT22;29763;50.904;5.530;2022-08-18T08:54:34;22.30;99.90
11067;DHT22;29763;50.904;5.530;2022-08-18T08:57:02;22.60;99.90
11067;DHT22;29763;50.904;5.530;2022-08-18T08:59:29;23.10;99.90
11067;DHT22;29763;50.904;5.530;2022-08-18T09:07:32;24.40;99.90
11067;DHT22;29763;50.904;5.530;2022-08-18T09:18:43;27.10;99.90
11067;DHT22;29763;50.904;5.530;2022-08-18T09:26:53;26.30;99.90
11067;DHT22;29763;50.904;5.530;2022-08-18T09:37:48;25.70;99.90
11067;DHT22;29763;50.904;5.530;2022-08-18T09:40:53;26.40;99.90
11067;DHT22;29763;50.904;5.530;2022-08-18T09:43:54;27.40;99.90
11067;DHT22;29763;50.904;5.530;2022-08-18T09:46:58;28.40;99.90
11067;DHT22;29763;50.904;5.530;2022-08-18T09:55:00;29.10;99.90
11067;DHT22;29763;50.904;5.530;2022-08-18T09:57:44;28.60;99.90
11067;DHT22;29763;50.904;5.530;2022-08-18T10:00:27;28.10;99.90
11067;DHT22;29763;50.904;5.530;2022-08-18T10:10:48;26.90;99.90
11067;DHT22;29763;50.904;5.530;2022-08-18T10:13:39;26.70;99.90
11067;DHT22;29763;50.904;5.530;2022-08-18T10:24:55;27.70;99.90
11067;DHT22;29763;50.904;5.530;2022-08-18T10:32:54;27.40;99.90
11067;DHT22;29763;50.904;5.530;2022-08-18T10:38:21;26.90;99.90
11067;DHT22;29763;50.904;5.530;2022-08-18T10:41:18;26.70;99.90
11067;DHT22;29763;50.904;5.530;2022-08-18T10:43:47;27.30;99.90
11067;DHT22;29763;50.904;5.530;2022-08-18T10:46:26;28.20;99.90
11067;DHT22;29763;50.904;5.530;2022-08-18T10:52:20;30.20;99.90
11067;DHT22;29763;50.904;5.530;2022-08-18T11:06:37;27.70;99.90
11067;DHT22;29763;50.904;5.530;2022-08-18T11:09:03;27.50;99.90
11067;DHT22;29763;50.904;5.530;2022-08-18T11:11:39;27.50;99.90
11067;DHT22;29763;50.904;5.530;2022-08-18T11:19:23;28.10;99.90
11067;DHT22;29763;50.904;5.530;2022-08-18T11:21:51;28.00;99.90
11067;DHT22;29763;50.904;5.530;2022-08-18T11:24:26;27.80;99.90
11067;DHT22;29763;50.904;5.530;2022-08-18T11:27:19;27.50;99.90
11067;DHT22;29763;50.904;5.530;2022-08-18T11:29:45;27.10;99.90
11067;DHT22;29763;50.904;5.530;2022-08-18T11:37:44;27.30;99.90
11067;DHT22;29763;50.904;5.530;2022-08-18T11:43:02;27.90;99.90
11067;DHT22;29763;50.904;5.530;2022-08-18T11:45:46;28.10;99.90
11067;DHT22;29763;50.904;5.530;2022-08-18T11:50:59;27.70;99.90
11067;DHT22;29763;50.904;5.530;2022-08-18T11:58:58;26.70;99.90
11067;DHT22;29763;50.904;5.530;2022-08-18T12:06:54;26.90;99.90
11067;DHT22;29763;50.904;5.530;2022-08-18T12:09:41;27.20;99.90
11067;DHT22;29763;50.904;5.530;2022-08-18T12:12:26;27.50;99.90
11067;DHT22;29763;50.904;5.530;2022-08-18T12:17:22;28.00;99.90
11067;DHT22;29763;50.904;5.530;2022-08-18T12:19:48;28.20;99.90
11067;DHT22;29763;50.904;5.530;2022-08-18T12:22:25;28.60;99.90
11067;DHT22;29763;50.904;5.530;2022-08-18T12:24:52;29.40;99.90
11067;DHT22;29763;50.904;5.530;2022-08-18T12:27:22;30.20;99.90
11067;DHT22;29763;50.904;5.530;2022-08-18T12:29:50;30.80;99.90
11067;DHT22;29763;50.904;5.530;2022-08-18T12:32:17;31.00;99.90
11067;DHT22;29763;50.904;5.530;2022-08-18T12:34:44;31.20;99.90
11067;DHT22;29763;50.904;5.530;2022-08-18T12:37:18;31.00;99.90
11067;DHT22;29763;50.904;5.530;2022-08-18T12:39:44;30.60;99.90
11067;DHT22;29763;50.904;5.530;2022-08-18T12:42:10;30.00;99.90
11067;DHT22;29763;50.904;5.530;2022-08-18T12:44:36;29.60;99.90
11067;DHT22;29763;50.904;5.530;2022-08-18T12:47:06;28.60;99.90
11067;DHT22;29763;50.904;5.530;2022-08-18T12:49:35;27.90;99.90
11067;DHT22;29763;50.904;5.530;2022-08-18T12:52:01;27.20;99.90
11067;DHT22;29763;50.904;5.530;2022-08-18T12:54:27;26.80;99.90
11067;DHT22;29763;50.904;5.530;2022-08-18T12:56:54;26.60;99.90
11067;DHT22;29763;50.904;5.530;2022-08-18T12:59:20;26.40;99.90
11067;DHT22;29763;50.904;5.530;2022-08-18T13:01:46;26.30;99.90
11067;DHT22;29763;50.904;5.530;2022-08-18T13:04:12;26.20;99.90
11067;DHT22;29763;50.904;5.530;2022-08-18T13:06:43;26.30;99.90
11067;DHT22;29763;50.904;5.530;2022-08-18T13:09:10;26.50;99.90
11067;DHT22;29763;50.904;5.530;2022-08-18T13:11:35;26.90;99.90
11067;DHT22;29763;50.904;5.530;2022-08-18T13:14:01;27.50;99.90
11067;DHT22;29763;50.904;5.530;2022-08-18T13:16:31;28.20;99.90
11067;DHT22;29763;50.904;5.530;2022-08-18T13:18:58;29.10;99.90
11067;DHT22;29763;50.904;5.530;2022-08-18T13:21:24;30.30;99.90
11067;DHT22;29763;50.904;5.530;2022-08-18T13:23:52;31.30;99.90
11067;DHT22;29763;50.904;5.530;2022-08-18T13:26:30;32.00;99.90
11067;DHT22;29763;50.904;5.530;2022-08-18T13:28:56;32.20;99.90
11067;DHT22;29763;50.904;5.530;2022-08-18T13:31:23;32.60;99.90
11067;DHT22;29763;50.904;5.530;2022-08-18T13:33:50;32.40;99.90
11067;DHT22;29763;50.904;5.530;2022-08-18T13:36:16;32.50;99.90
11067;DHT22;29763;50.904;5.530;2022-08-18T13:38:42;32.30;99.90
11067;DHT22;29763;50.904;5.530;2022-08-18T13:41:08;31.80;99.90
11067;DHT22;29763;50.904;5.530;2022-08-18T13:43:37;31.30;99.90
11067;DHT22;29763;50.904;5.530;2022-08-18T13:46:04;31.00;99.90
11067;DHT22;29763;50.904;5.530;2022-08-18T13:48:31;30.70;99.90
11067;DHT22;29763;50.904;5.530;2022-08-18T13:50:57;30.80;99.90
11067;DHT22;29763;50.904;5.530;2022-08-18T13:53:25;30.90;99.90
11067;DHT22;29763;50.904;5.530;2022-08-18T13:59:13;31.20;99.90
11067;DHT22;29763;50.904;5.530;2022-08-18T14:01:39;31.80;99.90
11067;DHT22;29763;50.904;5.530;2022-08-18T14:04:06;31.90;99.90
11067;DHT22;29763;50.904;5.530;2022-08-18T14:06:32;32.20;99.90
11067;DHT22;29763;50.904;5.530;2022-08-18T14:08:58;32.40;99.90
11067;DHT22;29763;50.904;5.530;2022-08-18T14:11:27;32.70;99.90
11067;DHT22;29763;50.904;5.530;2022-08-18T14:13:55;32.90;99.90
11067;DHT22;29763;50.904;5.530;2022-08-18T14:16:22;32.70;99.00
11067;DHT22;29763;50.904;5.530;2022-08-18T14:18:49;32.70;99.30
11067;DHT22;29763;50.904;5.530;2022-08-18T14:21:44;32.80;99.30
11067;DHT22;29763;50.904;5.530;2022-08-18T14:24:31;32.70;98.80
11067;DHT22;29763;50.904;5.530;2022-08-18T14:27:34;33.00;98.90
11067;DHT22;29763;50.904;5.530;2022-08-18T14:30:06;33.00;98.70
11067;DHT22;29763;50.904;5.530;2022-08-18T14:32:33;33.00;97.50
11067;DHT22;29763;50.904;5.530;2022-08-18T14:35:00;32.80;97.60
11067;DHT22;29763;50.904;5.530;2022-08-18T14:37:27;32.20;97.60
11067;DHT22;29763;50.904;5.530;2022-08-18T14:39:54;31.40;98.70
11067;DHT22;29763;50.904;5.530;2022-08-18T14:42:20;31.00;99.50
11067;DHT22;29763;50.904;5.530;2022-08-18T14:44:47;30.70;99.90
11067;DHT22;29763;50.904;5.530;2022-08-18T14:47:13;30.50;99.90
11067;DHT22;29763;50.904;5.530;2022-08-18T14:49:39;30.40;99.90
11067;DHT22;29763;50.904;5.530;2022-08-18T14:52:06;30.30;99.90
11067;DHT22;29763;50.904;5.530;2022-08-18T14:54:32;30.30;99.90
11067;DHT22;29763;50.904;5.530;2022-08-18T14:57:00;30.50;99.90
11067;DHT22;29763;50.904;5.530;2022-08-18T14:59:30;30.90;99.90
11067;DHT22;29763;50.904;5.530;2022-08-18T15:01:57;31.00;99.90
11067;DHT22;29763;50.904;5.530;2022-08-18T15:04:23;30.90;99.60
11067;DHT22;29763;50.904;5.530;2022-08-18T15:06:49;30.60;99.90
11067;DHT22;29763;50.904;5.530;2022-08-18T15:09:15;30.20;99.90
11067;DHT22;29763;50.904;5.530;2022-08-18T15:11:41;30.00;99.90
11067;DHT22;29763;50.904;5.530;2022-08-18T15:14:07;29.90;99.90
11067;DHT22;29763;50.904;5.530;2022-08-18T15:16:33;29.80;99.90
11067;DHT22;29763;50.904;5.530;2022-08-18T15:19:00;29.60;99.90
11067;DHT22;29763;50.904;5.530;2022-08-18T15:21:27;29.30;99.90
11067;DHT22;29763;50.904;5.530;2022-08-18T15:24:11;28.80;99.90
11067;DHT22;29763;50.904;5.530;2022-08-18T15:26:56;28.70;99.90
11067;DHT22;29763;50.904;5.530;2022-08-18T15:29:23;28.20;99.90
11067;DHT22;29763;50.904;5.530;2022-08-18T15:31:49;28.10;99.90
11067;DHT22;29763;50.904;5.530;2022-08-18T15:34:17;28.10;99.90
11067;DHT22;29763;50.904;5.530;2022-08-18T15:36:43;28.30;99.90
11067;DHT22;29763;50.904;5.530;2022-08-18T15:39:09;28.40;99.90
11067;DHT22;29763;50.904;5.530;2022-08-18T15:41:38;28.40;99.90
11067;DHT22;29763;50.904;5.530;2022-08-18T15:44:05;28.40;99.90
11067;DHT22;29763;50.904;5.530;2022-08-18T15:46:33;28.30;99.90
11067;DHT22;29763;50.904;5.530;2022-08-18T15:49:01;28.30;99.90
11067;DHT22;29763;50.904;5.530;2022-08-18T15:51:30;28.10;99.90
11067;DHT22;29763;50.904;5.530;2022-08-18T15:53:55;27.90;99.90
11067;DHT22;29763;50.904;5.530;2022-08-18T15:56:23;27.70;99.90
11067;DHT22;29763;50.904;5.530;2022-08-18T15:58:50;27.30;99.90
11067;DHT22;29763;50.904;5.530;2022-08-18T16:01:17;27.10;99.90
11067;DHT22;29763;50.904;5.530;2022-08-18T16:03:44;27.10;99.90
11067;DHT22;29763;50.904;5.530;2022-08-18T16:06:16;26.90;99.90
11067;DHT22;29763;50.904;5.530;2022-08-18T16:08:43;26.80;99.90
11067;DHT22;29763;50.904;5.530;2022-08-18T16:11:11;26.60;99.90
11067;DHT22;29763;50.904;5.530;2022-08-18T16:13:37;26.60;99.90
11067;DHT22;29763;50.904;5.530;2022-08-18T16:16:11;26.50;99.90
11067;DHT22;29763;50.904;5.530;2022-08-18T16:18:38;26.50;99.90
11067;DHT22;29763;50.904;5.530;2022-08-18T16:21:08;26.60;99.90
11067;DHT22;29763;50.904;5.530;2022-08-18T16:23:41;26.80;99.90
11067;DHT22;29763;50.904;5.530;2022-08-18T16:26:11;26.90;99.90
11067;DHT22;29763;50.904;5.530;2022-08-18T16:28:40;26.90;99.90
11067;DHT22;29763;50.904;5.530;2022-08-18T16:31:06;27.00;99.90
11067;DHT22;29763;50.904;5.530;2022-08-18T16:33:32;27.00;99.90
11067;DHT22;29763;50.904;5.530;2022-08-18T16:36:05;27.10;99.90
11067;DHT22;29763;50.904;5.530;2022-08-18T16:38:33;27.30;99.90
11067;DHT22;29763;50.904;5.530;2022-08-18T16:41:04;27.40;99.90
11067;DHT22;29763;50.904;5.530;2022-08-18T16:43:31;27.60;99.90
11067;DHT22;29763;50.904;5.530;2022-08-18T16:45:57;27.80;99.90
11067;DHT22;29763;50.904;5.530;2022-08-18T16:48:24;28.20;99.90
11067;DHT22;29763;50.904;5.530;2022-08-18T16:50:50;28.40;99.90
11067;DHT22;29763;50.904;5.530;2022-08-18T16:53:16;28.50;99.90
11067;DHT22;29763;50.904;5.530;2022-08-18T16:55:43;28.60;99.90
11067;DHT22;29763;50.904;5.530;2022-08-18T16:58:09;28.60;99.90
11067;DHT22;29763;50.904;5.530;2022-08-18T17:00:55;28.70;99.90
11067;DHT22;29763;50.904;5.530;2022-08-18T17:03:39;28.90;99.90
11067;DHT22;29763;50.904;5.530;2022-08-18T17:06:23;29.10;99.90
11067;DHT22;29763;50.904;5.530;2022-08-18T17:08:53;29.40;99.90
11067;DHT22;29763;50.904;5.530;2022-08-18T17:11:20;29.50;99.90
11067;DHT22;29763;50.904;5.530;2022-08-18T17:13:48;29.60;99.90
11067;DHT22;29763;50.904;5.530;2022-08-18T17:16:17;29.80;99.90
11067;DHT22;29763;50.904;5.530;2022-08-18T17:18:43;29.70;99.90
11067;DHT22;29763;50.904;5.530;2022-08-18T17:21:14;29.70;99.90
11067;DHT22;29763;50.904;5.530;2022-08-18T17:23:40;29.60;99.90
11067;DHT22;29763;50.904;5.530;2022-08-18T17:26:39;29.60;99.90
11067;DHT22;29763;50.904;5.530;2022-08-18T17:31:49;29.30;99.90
11067;DHT22;29763;50.904;5.530;2022-08-18T17:34:16;29.10;99.90
11067;DHT22;29763;50.904;5.530;2022-08-18T17:36:54;29.00;99.90
11067;DHT22;29763;50.904;5.530;2022-08-18T17:39:26;28.70;99.90
11067;DHT22;29763;50.904;5.530;2022-08-18T17:41:53;28.60;99.90
11067;DHT22;29763;50.904;5.530;2022-08-18T17:44:40;28.50;99.90
11067;DHT22;29763;50.904;5.530;2022-08-18T17:47:08;28.30;99.90
11067;DHT22;29763;50.904;5.530;2022-08-18T17:49:41;28.10;99.90
11067;DHT22;29763;50.904;5.530;2022-08-18T17:52:29;27.80;99.90
11067;DHT22;29763;50.904;5.530;2022-08-18T17:55:06;27.60;99.90
11067;DHT22;29763;50.904;5.530;2022-08-18T17:57:36;27.50;99.90
11067;DHT22;29763;50.904;5.530;2022-08-18T18:00:14;27.30;99.90
11067;DHT22;29763;50.904;5.530;2022-08-18T18:02:42;27.20;99.90
11067;DHT22;29763;50.904;5.530;2022-08-18T18:05:12;27.00;99.90
11067;DHT22;29763;50.904;5.530;2022-08-18T18:10:38;26.90;99.90
11067;DHT22;29763;50.904;5.530;2022-08-18T18:13:10;26.70;99.90
11067;DHT22;29763;50.904;5.530;2022-08-18T18:15:47;26.60;99.90
11067;DHT22;29763;50.904;5.530;2022-08-18T18:21:03;26.30;99.90
11067;DHT22;29763;50.904;5.530;2022-08-18T18:23:41;26.20;99.90
11067;DHT22;29763;50.904;5.530;2022-08-18T18:28:44;25.90;99.90
11067;DHT22;29763;50.904;5.530;2022-08-18T18:31:21;25.70;99.90
11067;DHT22;29763;50.904;5.530;2022-08-18T18:34:23;25.60;99.90
11067;DHT22;29763;50.904;5.530;2022-08-18T18:36:51;25.40;99.90
11067;DHT22;29763;50.904;5.530;2022-08-18T18:39:27;25.40;99.90
11067;DHT22;29763;50.904;5.530;2022-08-18T18:42:13;25.20;99.90
11067;DHT22;29763;50.904;5.530;2022-08-18T18:44:50;25.00;99.90
11067;DHT22;29763;50.904;5.530;2022-08-18T18:50:22;24.70;99.90